^^
Saratoga-Weather Station Historical Data
Daily Summary for November 1, 2020 Units:  English    Metric   Both
Daily Weekly Monthly Yearly Custom
  High: Low: Average:
Temperature: 63.7 °F 57.7 °F 60.1 °F
Dew Point: 59.7 °F 53.8 °F 57 °F
Humidity: 95% 78% 89%
Wind Speed: 10.1mph 0mph 2.2mph
Wind Gust: 20mph - -
Wind- - SSW
Pressure: 30 in 29.9 in -
Precipitation: 0.13 in    
Historical Graphs
 
 
Tabular Data for November 1, 2020
Time Temperature Dew Point Pressure Wind Wind Speed Wind Gust Humidity Rainfall Rate (Hourly) solar
00:02 60.1 °F 54 °F 30 in SSW 2.9 mph 4 mph 80% 0 in 0 W/m2
00:07 60.1 °F 54 °F 30 in East 0.9 mph 3 mph 80% 0 in 0 W/m2
00:12 60.1 °F 54 °F 30 in WNW 0.9 mph 7 mph 80% 0 in 0 W/m2
00:17 60.3 °F 54.1 °F 30 in ESE 0.9 mph 2 mph 80% 0 in 0 W/m2
00:22 60.3 °F 53.8 °F 30 in NW 4.9 mph 5 mph 79% 0 in 0 W/m2
00:27 60.6 °F 53.8 °F 30 in NW 0.9 mph 3 mph 78% 0 in 0 W/m2
00:32 60.6 °F 53.8 °F 30 in NW 0.9 mph 2 mph 78% 0 in 0 W/m2
00:37 60.6 °F 53.8 °F 30 in Calm   1 mph 78% 0 in 0 W/m2
00:42 60.6 °F 53.8 °F 30 in North 2 mph 8 mph 78% 0 in 0 W/m2
00:47 60.8 °F 54.3 °F 30 in Calm   6 mph 79% 0 in 0 W/m2
00:52 60.8 °F 54.3 °F 30 in NW 0.9 mph 10 mph 79% 0 in 0 W/m2
00:57 60.6 °F 54.1 °F 30 in North 2.9 mph 6 mph 79% 0 in 0 W/m2
01:02 60.6 °F 54.5 °F 30 in South 0.9 mph 7 mph 80% 0 in 0 W/m2
01:07 60.6 °F 54.5 °F 30 in Calm   3 mph 80% 0 in 0 W/m2
01:12 60.6 °F 54.5 °F 30 in NW 2 mph 4 mph 80% 0 in 0 W/m2
01:17 60.4 °F 54.3 °F 30 in Calm   4 mph 80% 0 in 0 W/m2
01:22 60.4 °F 54.3 °F 30 in NW 2 mph 2 mph 80% 0 in 0 W/m2
01:27 60.4 °F 54.3 °F 30 in SSE 2.9 mph 4 mph 80% 0 in 0 W/m2
01:32 60.4 °F 54.3 °F 30 in Calm   3 mph 80% 0 in 0 W/m2
01:37 60.4 °F 54.5 °F 30 in NNE 0.9 mph 3 mph 81% 0 in 0 W/m2
01:42 60.3 °F 54.3 °F 30 in NNW 0.9 mph 4 mph 81% 0 in 0 W/m2
01:47 60.3 °F 54.7 °F 30 in NNW 4.9 mph 5 mph 82% 0 in 0 W/m2
01:52 60.1 °F 54.5 °F 30 in WNW 2 mph 3 mph 82% 0 in 0 W/m2
01:57 59.7 °F 54.5 °F 30 in ENE 0.9 mph 4 mph 83% 0 in 0 W/m2
02:02 59.7 °F 54.5 °F 30 in Calm   2 mph 83% 0 in 0 W/m2
02:07 59.5 °F 54.3 °F 30 in WNW 0.9 mph 3 mph 83% 0 in 0 W/m2
02:12 59.5 °F 54.7 °F 30 in East 2.9 mph 3 mph 84% 0 in 0 W/m2
02:17 59.4 °F 54.5 °F 30 in NNW 2 mph 3 mph 84% 0 in 0 W/m2
02:22 59.4 °F 54.5 °F 30 in NE 0.9 mph 3 mph 84% 0 in 0 W/m2
02:27 59.4 °F 54.5 °F 30 in WNW 0.9 mph 2 mph 84% 0 in 0 W/m2
02:32 59.4 °F 54.5 °F 30 in NNE 0.9 mph 2 mph 84% 0 in 0 W/m2
02:37 59.2 °F 54.7 °F 30 in Calm   6 mph 85% 0 in 0 W/m2
02:42 59.4 °F 54.9 °F 30 in WNW 0.9 mph 3 mph 85% 0 in 0 W/m2
02:47 59.2 °F 54.7 °F 30 in Calm   1 mph 85% 0 in 0 W/m2
02:52 59.2 °F 54.7 °F 30 in Calm   3 mph 85% 0 in 0 W/m2
02:57 59.2 °F 54.7 °F 30 in Calm   1 mph 85% 0 in 0 W/m2
03:02 59.2 °F 54.7 °F 30 in Calm   3 mph 85% 0 in 0 W/m2
03:07 59.2 °F 54.7 °F 30 in SE 0.9 mph 1 mph 85% 0 in 0 W/m2
03:12 59 °F 54.5 °F 30 in ENE 2 mph 4 mph 85% 0 in 0 W/m2
03:17 59 °F 54.9 °F 30 in Calm   2 mph 86% 0 in 0 W/m2
03:22 59 °F 54.9 °F 30 in Calm   2 mph 86% 0 in 0 W/m2
03:27 59 °F 54.9 °F 30 in WNW 0.9 mph 2 mph 86% 0 in 0 W/m2
03:32 59.2 °F 55.4 °F 30 in NW 0.9 mph 3 mph 87% 0 in 0 W/m2
03:37 59.2 °F 55.4 °F 30 in East 2.9 mph 8 mph 87% 0 in 0 W/m2
03:42 59.2 °F 55.4 °F 30 in NW 2.9 mph 5 mph 87% 0 in 0 W/m2
03:47 59.2 °F 55.4 °F 30 in ESE 4 mph 8 mph 87% 0 in 0 W/m2
03:52 59.2 °F 55.4 °F 30 in NNW 0.9 mph 1 mph 87% 0 in 0 W/m2
03:57 59.2 °F 55.4 °F 30 in NNE 2 mph 6 mph 87% 0 in 0 W/m2
04:02 59.2 °F 55.4 °F 30 in NNE 2 mph 3 mph 87% 0 in 0 W/m2
04:07 59.2 °F 55.4 °F 30 in NW 2.9 mph 8 mph 87% 0 in 0 W/m2
04:12 59.2 °F 55.4 °F 30 in WNW 2.9 mph 3 mph 87% 0 in 0 W/m2
04:17 59.2 °F 55.4 °F 30 in West 4 mph 6 mph 87% 0 in 0 W/m2
04:22 59.2 °F 55.6 °F 30 in West 2 mph 7 mph 88% 0 in 0 W/m2
04:27 59.2 °F 55.6 °F 30 in ESE 6 mph 6 mph 88% 0 in 0 W/m2
04:32 59.2 °F 55.6 °F 30 in NNW 2 mph 6 mph 88% 0 in 0 W/m2
04:37 59 °F 55.4 °F 30 in East 0.9 mph 8 mph 88% 0 in 0 W/m2
04:42 59 °F 55.4 °F 30 in Calm   3 mph 88% 0 in 0 W/m2
04:47 58.8 °F 55.6 °F 30 in ENE 2.9 mph 6 mph 89% 0 in 0 W/m2
04:52 58.8 °F 55.6 °F 30 in NW 0.9 mph 7 mph 89% 0 in 0 W/m2
04:57 58.6 °F 55.4 °F 30 in Calm   4 mph 89% 0 in 0 W/m2
05:02 58.6 °F 55.4 °F 30 in SE 2 mph 7 mph 89% 0 in 0 W/m2
05:07 58.6 °F 55.8 °F 30 in North 0.9 mph 3 mph 90% 0 in 0 W/m2
05:12 58.5 °F 55.6 °F 30 in NNE 2 mph 3 mph 90% 0 in 0 W/m2
05:17 58.5 °F 55.6 °F 30 in NE 0.9 mph 2 mph 90% 0 in 0 W/m2
05:22 58.5 °F 55.6 °F 30 in NW 2.9 mph 7 mph 90% 0 in 0 W/m2
05:27 58.5 °F 55.8 °F 30 in NW 0.9 mph 4 mph 91% 0 in 0 W/m2
05:32 58.5 °F 55.8 °F 30 in NW 0.9 mph 7 mph 91% 0 in 0 W/m2
05:37 58.5 °F 55.8 °F 30 in West 2 mph 6 mph 91% 0 in 0 W/m2
05:42 58.5 °F 55.8 °F 30 in Calm   3 mph 91% 0 in 0 W/m2
05:47 58.5 °F 55.8 °F 30 in NNW 0.9 mph 6 mph 91% 0 in 0 W/m2
05:52 58.5 °F 55.8 °F 30 in North 0.9 mph 2 mph 91% 0 in 0 W/m2
05:57 58.3 °F 55.9 °F 30 in WNW 2.9 mph 3 mph 92% 0 in 0 W/m2
06:02 58.3 °F 55.9 °F 30 in ENE 0.9 mph 3 mph 92% 0 in 0 W/m2
06:07 58.5 °F 56.1 °F 30 in NNE 2.9 mph 5 mph 92% 0 in 0 W/m2
06:12 58.5 °F 56.1 °F 30 in NE 4 mph 5 mph 92% 0 in 0 W/m2
06:17 58.5 °F 56.1 °F 30 in WSW 2 mph 4 mph 92% 0 in 0 W/m2
06:22 58.5 °F 56.1 °F 30 in East 0.9 mph 3 mph 92% 0 in 0 W/m2
06:27 58.3 °F 55.9 °F 30 in West 0.9 mph 7 mph 92% 0 in 0 W/m2
06:32 58.3 °F 55.9 °F 30 in North 0.9 mph 2 mph 92% 0 in 0 W/m2
06:37 58.1 °F 55.8 °F 30 in NNE 0.9 mph 7 mph 92% 0 in 0 W/m2
06:42 57.9 °F 55.9 °F 30 in NE 2 mph 3 mph 93% 0 in 0 W/m2
06:47 57.7 °F 55.8 °F 30 in NE 2 mph 5 mph 93% 0 in 0 W/m2
06:52 57.7 °F 55.8 °F 30 in Calm   3 mph 93% 0 in 0 W/m2
06:57 57.7 °F 55.8 °F 30 in East 2 mph 2 mph 93% 0 in 0 W/m2
07:03 57.7 °F 55.9 °F 30 in Calm   2 mph 94% 0 in 0 W/m2
07:08 57.7 °F 55.9 °F 30 in NNE 0.9 mph 2 mph 94% 0 in 0 W/m2
07:13 57.7 °F 55.9 °F 30 in NNW 2 mph 3 mph 94% 0 in 0 W/m2
07:18 57.7 °F 55.9 °F 30 in NNW 2 mph 4 mph 94% 0 in 0 W/m2
07:23 57.7 °F 55.9 °F 30 in WSW 0.9 mph 4 mph 94% 0 in 0 W/m2
07:28 57.7 °F 55.9 °F 30 in Calm   3 mph 94% 0 in 0 W/m2
07:33 57.7 °F 55.9 °F 30 in NNW 2.9 mph 4 mph 94% 0 in 0 W/m2
07:38 57.9 °F 56.1 °F 30 in NNE 2.9 mph 3 mph 94% 0 in 0 W/m2
07:43 57.9 °F 56.1 °F 30 in West 4 mph 4 mph 94% 0 in 0 W/m2
07:48 58.1 °F 56.3 °F 30 in NNW 2 mph 4 mph 94% 0 in 7 W/m2
07:53 58.1 °F 56.3 °F 30 in Calm   2 mph 94% 0 in 5 W/m2
07:58 58.3 °F 56.5 °F 30 in North 2 mph 4 mph 94% 0 in 7 W/m2
08:03 58.3 °F 56.5 °F 30 in NE 2 mph 6 mph 94% 0 in 9 W/m2
08:08 58.3 °F 56.5 °F 30 in Calm   2 mph 94% 0 in 9 W/m2
08:13 58.3 °F 56.3 °F 30 in NNE 0.9 mph 3 mph 93% 0 in 9 W/m2
08:18 58.5 °F 56.5 °F 30 in NE 2.9 mph 4 mph 93% 0 in 7 W/m2
08:23 58.5 °F 56.5 °F 30 in ENE 2 mph 2 mph 93% 0 in 16 W/m2
08:28 58.5 °F 56.5 °F 30 in North 2 mph 4 mph 93% 0 in 21 W/m2
08:33 58.5 °F 56.5 °F 30 in ENE 0.9 mph 4 mph 93% 0 in 23 W/m2
08:38 58.5 °F 56.5 °F 30 in ENE 2 mph 3 mph 93% 0 in 23 W/m2
08:43 58.5 °F 56.5 °F 30 in Calm   4 mph 93% 0 in 19 W/m2
08:48 58.5 °F 56.5 °F 30 in NNE 0.9 mph 5 mph 93% 0 in 19 W/m2
08:53 58.6 °F 56.7 °F 30 in NE 2.9 mph 3 mph 93% 0 in 14 W/m2
08:58 58.6 °F 56.7 °F 30 in NE 0.9 mph 5 mph 93% 0 in 11 W/m2
09:03 58.6 °F 56.7 °F 30 in North 2.9 mph 5 mph 93% 0 in 21 W/m2
09:08 58.8 °F 56.8 °F 30 in ENE 2 mph 8 mph 93% 0 in 28 W/m2
09:13 58.8 °F 56.8 °F 30 in NE 0.9 mph 1 mph 93% 0 in 28 W/m2
09:18 58.8 °F 56.8 °F 30 in NNE 0.9 mph 4 mph 93% 0 in 37 W/m2
09:23 59 °F 57 °F 30 in NE 2 mph 3 mph 93% 0 in 37 W/m2
09:28 59 °F 57 °F 30 in NNW 4 mph 4 mph 93% 0 in 37 W/m2
09:33 59.2 °F 57.2 °F 30 in NW 4 mph 5 mph 93% 0 in 28 W/m2
09:38 59.2 °F 57.2 °F 30 in NE 2 mph 5 mph 93% 0 in 30 W/m2
09:44 59.2 °F 57.2 °F 30 in NNW 0.9 mph 4 mph 93% 0 in 30 W/m2
09:49 59.4 °F 57.4 °F 30 in North 2 mph 5 mph 93% 0.01 in 26 W/m2
09:54 59.4 °F 57.4 °F 30 in East 2 mph 3 mph 93% 0.01 in 32 W/m2
09:59 59.2 °F 57.2 °F 30 in NE 2 mph 5 mph 93% 0.01 in 44 W/m2
10:04 59.2 °F 57.2 °F 30 in West 2 mph 7 mph 93% 0.01 in 46 W/m2
10:09 59.2 °F 57.4 °F 30 in NNW 2.9 mph 5 mph 94% 0.02 in 67 W/m2
10:14 59.2 °F 57.4 °F 30 in NW 0.9 mph 4 mph 94% 0.02 in 69 W/m2
10:19 59.4 °F 57.6 °F 30 in SE 0.9 mph 2 mph 94% 0.02 in 62 W/m2
10:24 59.4 °F 57.6 °F 30 in ENE 6 mph 6 mph 94% 0.02 in 56 W/m2
10:29 59.4 °F 57.6 °F 30 in NNW 2.9 mph 5 mph 94% 0.02 in 56 W/m2
10:34 59.4 °F 57.6 °F 30 in North 2 mph 2 mph 94% 0.03 in 84 W/m2
10:39 59.4 °F 57.6 °F 30 in NE 2.9 mph 4 mph 94% 0.04 in 86 W/m2
10:44 59.4 °F 57.6 °F 30 in NE 0.9 mph 2 mph 94% 0.05 in 83 W/m2
10:49 59.4 °F 57.6 °F 30 in North 0.9 mph 4 mph 94% 0.04 in 62 W/m2
10:54 59.5 °F 58.1 °F 30 in Calm   1 mph 95% 0.05 in 69 W/m2
10:59 59.4 °F 57.6 °F 30 in Calm   8 mph 94% 0.05 in 37 W/m2
11:04 59.5 °F 57.7 °F 30 in NNE 0.9 mph 4 mph 94% 0.05 in 39 W/m2
11:09 59.5 °F 57.7 °F 30 in West 2.9 mph 11 mph 94% 0.04 in 33 W/m2
11:14 59.5 °F 57.7 °F 30 in WNW 4.9 mph 9 mph 94% 0.04 in 44 W/m2
11:19 59.7 °F 57.9 °F 30 in NW 2 mph 8 mph 94% 0.04 in 32 W/m2
11:24 59.9 °F 58.1 °F 30 in NNE 2 mph 7 mph 94% 0.04 in 33 W/m2
11:29 60.1 °F 58.1 °F 30 in NW 8.9 mph 10 mph 93% 0.03 in 42 W/m2
11:34 60.1 °F 58.1 °F 30 in West 2 mph 6 mph 93% 0.02 in 58 W/m2
11:39 60.3 °F 57.9 °F 30 in ENE 2.9 mph 5 mph 92% 0.02 in 46 W/m2
11:44 60.4 °F 58.1 °F 30 in ENE 4.9 mph 5 mph 92% 0.02 in 67 W/m2
11:49 60.4 °F 58.1 °F 30 in WNW 2.9 mph 6 mph 92% 0.02 in 44 W/m2
11:54 60.4 °F 57.7 °F 30 in SSW 2.9 mph 20 mph 91% 0.01 in 60 W/m2
11:59 60.6 °F 57.7 °F 30 in South 0.9 mph 11 mph 90% 0.01 in 53 W/m2
12:04 60.6 °F 57.7 °F 30 in NW 6.9 mph 20 mph 90% 0.01 in 62 W/m2
12:09 60.6 °F 57.7 °F 30 in ENE 0.9 mph 5 mph 90% 0.01 in 81 W/m2
12:14 60.6 °F 57.4 °F 30 in WNW 2.9 mph 11 mph 89% 0.01 in 83 W/m2
12:19 60.4 °F 57.2 °F 30 in North 2.9 mph 6 mph 89% 0.01 in 58 W/m2
12:24 60.4 °F 57.6 °F 30 in WNW 6.9 mph 9 mph 90% 0.01 in 91 W/m2
12:29 60.3 °F 57 °F 30 in North 2.9 mph 13 mph 89% 0.01 in 70 W/m2
12:34 60.1 °F 57.2 °F 30 in NW 2.9 mph 8 mph 90% 0.01 in 53 W/m2
12:39 60.1 °F 57.2 °F 29.9 in South 6 mph 13 mph 90% 0 in 42 W/m2
12:44 60.1 °F 57.2 °F 29.9 in West 6.9 mph 10 mph 90% 0 in 105 W/m2
12:49 60.3 °F 57 °F 29.9 in WNW 4.9 mph 12 mph 89% 0 in 102 W/m2
12:54 60.3 °F 57.4 °F 29.9 in WNW 0.9 mph 5 mph 90% 0 in 98 W/m2
12:59 60.1 °F 57.2 °F 29.9 in South 4.9 mph 12 mph 90% 0.01 in 70 W/m2
13:04 59.9 °F 57.2 °F 29.9 in Calm   5 mph 91% 0.01 in 81 W/m2
13:09 59.9 °F 57.2 °F 29.9 in NNW 0.9 mph 9 mph 91% 0.01 in 86 W/m2
13:14 59.9 °F 57.2 °F 29.9 in West 2.9 mph 6 mph 91% 0.01 in 109 W/m2
13:19 59.9 °F 57.2 °F 29.9 in NNW 2 mph 4 mph 91% 0.01 in 97 W/m2
13:24 59.9 °F 57.2 °F 29.9 in NNW 2.9 mph 7 mph 91% 0.01 in 95 W/m2
13:29 59.9 °F 57.6 °F 29.9 in NNW 2.9 mph 8 mph 92% 0.01 in 93 W/m2
13:34 59.9 °F 57.6 °F 29.9 in WNW 4.9 mph 10 mph 92% 0.02 in 91 W/m2
13:39 59.9 °F 57.6 °F 29.9 in NNW 6 mph 8 mph 92% 0.02 in 95 W/m2
13:44 59.9 °F 57.6 °F 29.9 in WSW 2 mph 10 mph 92% 0.02 in 79 W/m2
13:49 59.7 °F 57.4 °F 29.9 in NNW 2.9 mph 5 mph 92% 0.03 in 86 W/m2
13:54 59.7 °F 57.7 °F 29.9 in ENE 4 mph 7 mph 93% 0.04 in 116 W/m2
13:59 59.7 °F 57.7 °F 29.9 in NNW 8.1 mph 8 mph 93% 0.03 in 111 W/m2
14:04 59.7 °F 57.7 °F 29.9 in NW 4.9 mph 6 mph 93% 0.03 in 107 W/m2
14:09 59.7 °F 57.7 °F 29.9 in SW 2 mph 12 mph 93% 0.04 in 105 W/m2
14:14 59.7 °F 57.7 °F 29.9 in NNW 2.9 mph 8 mph 93% 0.04 in 77 W/m2
14:19 59.5 °F 57.6 °F 29.9 in NW 2 mph 7 mph 93% 0.05 in 49 W/m2
14:24 59.5 °F 57.6 °F 29.9 in North 2.9 mph 9 mph 93% 0.05 in 26 W/m2
14:29 59.5 °F 57.6 °F 29.9 in SW 2 mph 5 mph 93% 0.05 in 33 W/m2
14:34 59.5 °F 57.6 °F 29.9 in NNW 2.9 mph 4 mph 93% 0.04 in 63 W/m2
14:39 59.5 °F 57.6 °F 29.9 in West 4 mph 5 mph 93% 0.04 in 40 W/m2
14:44 59.5 °F 57.6 °F 29.9 in ENE 2.9 mph 8 mph 93% 0.03 in 28 W/m2
14:50 59.5 °F 57.6 °F 29.9 in NNE 0.9 mph 2 mph 93% 0.02 in 23 W/m2
14:55 59.5 °F 57.6 °F 29.9 in NW 2 mph 4 mph 93% 0.02 in 51 W/m2
15:00 59.5 °F 57.6 °F 29.9 in North 2 mph 3 mph 93% 0.02 in 35 W/m2
15:05 59.5 °F 57.6 °F 29.9 in ESE 6 mph 7 mph 93% 0.01 in 11 W/m2
15:10 59.5 °F 57.7 °F 29.9 in NW 2 mph 8 mph 94% 0.02 in 9 W/m2
15:15 59.4 °F 57.6 °F 29.9 in NW 2.9 mph 3 mph 94% 0.02 in 11 W/m2
15:20 59.4 °F 57.6 °F 29.9 in Calm   5 mph 94% 0.01 in 12 W/m2
15:25 59.5 °F 57.7 °F 29.9 in NNW 0.9 mph 4 mph 94% 0.01 in 18 W/m2
15:30 59.5 °F 57.7 °F 29.9 in ENE 2 mph 4 mph 94% 0.01 in 26 W/m2
15:35 59.7 °F 57.7 °F 29.9 in NNW 4 mph 4 mph 93% 0.01 in 26 W/m2
15:40 59.7 °F 57.7 °F 29.9 in NE 0.9 mph 9 mph 93% 0.01 in 16 W/m2
15:45 59.9 °F 57.9 °F 29.9 in WNW 6.9 mph 8 mph 93% 0.01 in 21 W/m2
15:50 60.1 °F 58.1 °F 29.9 in NW 8.1 mph 8 mph 93% 0.01 in 12 W/m2
15:55 60.3 °F 57.9 °F 29.9 in NNE 0.9 mph 2 mph 92% 0.01 in 14 W/m2
16:00 60.3 °F 57.9 °F 29.9 in WNW 0.9 mph 2 mph 92% 0.01 in 18 W/m2
16:05 60.3 °F 57.9 °F 29.9 in NW 2.9 mph 4 mph 92% 0.01 in 23 W/m2
16:10 60.3 °F 57.9 °F 29.9 in NW 2 mph 2 mph 92% 0 in 12 W/m2
16:15 60.3 °F 57.9 °F 29.9 in NNW 2 mph 7 mph 92% 0 in 7 W/m2
16:20 60.3 °F 57.9 °F 29.9 in Calm   4 mph 92% 0 in 5 W/m2
16:25 60.3 °F 57.9 °F 29.9 in NNW 2 mph 7 mph 92% 0 in 0 W/m2
16:30 60.3 °F 57.9 °F 29.9 in WSW 0.9 mph 4 mph 92% 0 in 0 W/m2
16:35 60.3 °F 57.9 °F 29.9 in NNE 0.9 mph 4 mph 92% 0 in 0 W/m2
16:40 60.1 °F 57.7 °F 29.9 in North 2 mph 2 mph 92% 0 in 0 W/m2
16:45 60.1 °F 57.7 °F 29.9 in SW 4 mph 4 mph 92% 0 in 0 W/m2
16:50 60.3 °F 57.9 °F 29.9 in SW 0.9 mph 5 mph 92% 0 in 0 W/m2
16:55 60.3 °F 57.9 °F 29.9 in Calm   6 mph 92% 0 in 0 W/m2
17:00 60.3 °F 57.9 °F 29.9 in ESE 2 mph 6 mph 92% 0 in 0 W/m2
17:05 60.4 °F 57.7 °F 29.9 in NW 4 mph 4 mph 91% 0 in 0 W/m2
17:10 60.4 °F 57.7 °F 29.9 in Calm   2 mph 91% 0 in 0 W/m2
17:15 60.4 °F 57.7 °F 29.9 in NNE 2 mph 4 mph 91% 0 in 0 W/m2
17:20 60.4 °F 57.7 °F 29.9 in North 0.9 mph 2 mph 91% 0 in 0 W/m2
17:25 60.4 °F 57.7 °F 29.9 in NNW 0.9 mph 5 mph 91% 0 in 0 W/m2
17:30 60.4 °F 57.7 °F 29.9 in NNE 2 mph 3 mph 91% 0 in 0 W/m2
17:35 60.4 °F 57.6 °F 29.9 in North 0.9 mph 6 mph 90% 0 in 0 W/m2
17:40 60.4 °F 57.6 °F 29.9 in NNW 2.9 mph 5 mph 90% 0 in 0 W/m2
17:45 60.8 °F 57.6 °F 29.9 in WNW 2.9 mph 7 mph 89% 0 in 0 W/m2
17:50 60.8 °F 57.6 °F 29.9 in NE 2 mph 4 mph 89% 0 in 0 W/m2
17:55 61 °F 57.7 °F 29.9 in NE 2 mph 6 mph 89% 0 in 0 W/m2
18:00 61.2 °F 57.6 °F 29.9 in NNW 2.9 mph 8 mph 88% 0 in 0 W/m2
18:05 61.2 °F 57.6 °F 29.9 in NNE 2 mph 3 mph 88% 0 in 0 W/m2
18:10 61.2 °F 57.6 °F 29.9 in SW 6.9 mph 7 mph 88% 0 in 0 W/m2
18:15 61.2 °F 57.6 °F 29.9 in NW 6 mph 8 mph 88% 0 in 0 W/m2
18:20 61.2 °F 57.2 °F 29.9 in NW 4 mph 9 mph 87% 0 in 0 W/m2
18:25 61.2 °F 57.2 °F 29.9 in NNW 0.9 mph 4 mph 87% 0 in 0 W/m2
18:30 61.3 °F 57.4 °F 29.9 in SE 2.9 mph 7 mph 87% 0 in 0 W/m2
18:35 61.3 °F 57.4 °F 29.9 in SW 2 mph 5 mph 87% 0 in 0 W/m2
18:40 61.3 °F 57.4 °F 29.9 in West 0.9 mph 5 mph 87% 0 in 0 W/m2
18:45 61.3 °F 57.4 °F 29.9 in NNW 2 mph 4 mph 87% 0 in 0 W/m2
18:50 61.3 °F 57.4 °F 29.9 in North 0.9 mph 5 mph 87% 0 in 0 W/m2
18:55 61.3 °F 57.4 °F 29.9 in West 2.9 mph 3 mph 87% 0 in 0 W/m2
19:00 61.5 °F 57.6 °F 29.9 in SW 2 mph 6 mph 87% 0 in 0 W/m2
19:05 61.5 °F 57.4 °F 29.9 in East 2 mph 2 mph 86% 0 in 0 W/m2
19:10 61.7 °F 57.4 °F 29.9 in West 4 mph 6 mph 86% 0 in 0 W/m2
19:15 61.9 °F 57.6 °F 29.9 in NE 2 mph 7 mph 86% 0 in 0 W/m2
19:20 61.9 °F 57.6 °F 29.9 in Calm   4 mph 86% 0 in 0 W/m2
19:25 61.9 °F 57.6 °F 29.9 in North 0.9 mph 3 mph 86% 0 in 0 W/m2
19:30 62.1 °F 57.7 °F 29.9 in East 0.9 mph 4 mph 86% 0 in 0 W/m2
19:35 62.1 °F 58.1 °F 29.9 in North 0.9 mph 2 mph 87% 0 in 0 W/m2
19:40 61.9 °F 57.9 °F 29.9 in North 2 mph 4 mph 87% 0 in 0 W/m2
19:45 61.9 °F 57.9 °F 29.9 in North 2 mph 4 mph 87% 0 in 0 W/m2
19:50 61.9 °F 57.9 °F 29.9 in West 0.9 mph 8 mph 87% 0 in 0 W/m2
19:55 62.1 °F 58.1 °F 29.9 in WNW 2 mph 7 mph 87% 0 in 0 W/m2
20:00 62.1 °F 58.1 °F 29.9 in WNW 2.9 mph 10 mph 87% 0 in 0 W/m2
20:05 62.1 °F 58.1 °F 29.9 in SW 0.9 mph 4 mph 87% 0 in 0 W/m2
20:10 62.2 °F 58.3 °F 29.9 in South 4 mph 7 mph 87% 0 in 0 W/m2
20:15 62.1 °F 58.5 °F 29.9 in NW 2.9 mph 5 mph 88% 0 in 0 W/m2
20:20 62.1 °F 58.5 °F 29.9 in WNW 2 mph 5 mph 88% 0 in 0 W/m2
20:25 62.1 °F 58.5 °F 29.9 in West 2 mph 5 mph 88% 0 in 0 W/m2
20:30 62.2 °F 58.6 °F 29.9 in WNW 0.9 mph 4 mph 88% 0 in 0 W/m2
20:35 62.2 °F 58.6 °F 29.9 in NW 0.9 mph 5 mph 88% 0 in 0 W/m2
20:40 62.2 °F 58.6 °F 29.9 in Calm   3 mph 88% 0 in 0 W/m2
20:45 62.2 °F 58.6 °F 29.9 in NW 10.1 mph 10 mph 88% 0 in 0 W/m2
20:50 62.2 °F 58.6 °F 29.9 in WSW 4 mph 6 mph 88% 0 in 0 W/m2
20:55 62.2 °F 58.6 °F 29.9 in NW 6 mph 9 mph 88% 0 in 0 W/m2
21:00 62.2 °F 58.6 °F 29.9 in North 2.9 mph 4 mph 88% 0 in 0 W/m2
21:05 62.2 °F 58.6 °F 29.9 in NNW 4.9 mph 9 mph 88% 0 in 0 W/m2
21:10 62.2 °F 58.6 °F 29.9 in ENE 0.9 mph 4 mph 88% 0 in 0 W/m2
21:15 62.2 °F 58.6 °F 29.9 in NW 2.9 mph 8 mph 88% 0 in 0 W/m2
21:20 62.2 °F 58.6 °F 29.9 in NE 2 mph 4 mph 88% 0 in 0 W/m2
21:25 62.2 °F 58.6 °F 29.9 in NW 2.9 mph 5 mph 88% 0 in 0 W/m2
21:30 62.2 °F 58.6 °F 29.9 in Calm   4 mph 88% 0 in 0 W/m2
21:35 62.2 °F 58.6 °F 29.9 in NW 4 mph 8 mph 88% 0 in 0 W/m2
21:40 62.4 °F 58.8 °F 29.9 in SW 6.9 mph 7 mph 88% 0 in 0 W/m2
21:45 62.4 °F 58.8 °F 29.9 in North 4 mph 5 mph 88% 0 in 0 W/m2
21:50 62.4 °F 58.8 °F 29.9 in WSW 6.9 mph 8 mph 88% 0 in 0 W/m2
21:55 62.6 °F 59 °F 29.9 in NW 0.9 mph 8 mph 88% 0 in 0 W/m2
22:00 62.8 °F 59.2 °F 29.9 in East 2.9 mph 7 mph 88% 0 in 0 W/m2
22:05 62.8 °F 59.2 °F 29.9 in North 2 mph 9 mph 88% 0 in 0 W/m2
22:10 63 °F 59.4 °F 29.9 in WNW 2 mph 11 mph 88% 0 in 0 W/m2
22:15 63 °F 59.4 °F 29.9 in NW 4 mph 7 mph 88% 0 in 0 W/m2
22:20 63 °F 59.4 °F 29.9 in NW 0.9 mph 6 mph 88% 0 in 0 W/m2
22:25 63.1 °F 59.5 °F 29.9 in WNW 10.1 mph 10 mph 88% 0 in 0 W/m2
22:30 63.1 °F 59.5 °F 29.9 in North 0.9 mph 11 mph 88% 0 in 0 W/m2
22:35 63.1 °F 59.5 °F 29.9 in WSW 4 mph 4 mph 88% 0 in 0 W/m2
22:40 63.1 °F 59.5 °F 29.9 in Calm   10 mph 88% 0 in 0 W/m2
22:45 63.1 °F 59.5 °F 29.9 in NNW 2.9 mph 3 mph 88% 0 in 0 W/m2
22:50 63.1 °F 59.5 °F 29.9 in ENE 2 mph 6 mph 88% 0 in 0 W/m2
22:55 63.1 °F 59.5 °F 29.9 in West 0.9 mph 5 mph 88% 0 in 0 W/m2
23:00 63.1 °F 59.5 °F 29.9 in North 0.9 mph 4 mph 88% 0 in 0 W/m2
23:05 63.1 °F 59.5 °F 29.9 in West 2 mph 12 mph 88% 0 in 0 W/m2
23:10 63.3 °F 59.7 °F 29.9 in WNW 2.9 mph 3 mph 88% 0 in 0 W/m2
23:15 63.3 °F 59.7 °F 29.9 in North 0.9 mph 12 mph 88% 0 in 0 W/m2
23:20 63.3 °F 59.4 °F 29.9 in WNW 0.9 mph 5 mph 87% 0 in 0 W/m2
23:25 63.5 °F 59.5 °F 29.9 in NE 2 mph 7 mph 87% 0 in 0 W/m2
23:30 63.7 °F 59.7 °F 29.9 in WNW 2.9 mph 8 mph 87% 0 in 0 W/m2
23:35 63.7 °F 59.7 °F 29.9 in West 0.9 mph 6 mph 87% 0 in 0 W/m2
23:40 63.7 °F 59.7 °F 29.9 in NNE 4.9 mph 5 mph 87% 0 in 0 W/m2
23:45 63.7 °F 59.7 °F 29.9 in West 2 mph 3 mph 87% 0 in 0 W/m2
23:50 63.7 °F 59.7 °F 29.9 in ENE 2 mph 7 mph 87% 0 in 0 W/m2
23:55 63.5 °F 59.5 °F 29.9 in NNW 6 mph 7 mph 87% 0 in 0 W/m2
Juneau County Weather
Compliments of Weather Underground - 4 mb